sensor_id;sensor_type;location;lat;lon;timestamp;P1;durP1;ratioP1;P2;durP2;ratioP2
773;SDS011;370;48.810;9.150;2022-08-18T00:00:02;5.90;;;3.03;;
773;SDS011;370;48.810;9.150;2022-08-18T00:02:31;4.30;;;2.47;;
773;SDS011;370;48.810;9.150;2022-08-18T00:04:58;5.30;;;3.33;;
773;SDS011;370;48.810;9.150;2022-08-18T00:07:27;5.07;;;3.10;;
773;SDS011;370;48.810;9.150;2022-08-18T00:09:56;4.97;;;2.97;;
773;SDS011;370;48.810;9.150;2022-08-18T00:12:24;5.20;;;2.93;;
773;SDS011;370;48.810;9.150;2022-08-18T00:14:55;5.27;;;3.20;;
773;SDS011;370;48.810;9.150;2022-08-18T00:17:26;5.90;;;3.67;;
773;SDS011;370;48.810;9.150;2022-08-18T00:19:52;4.27;;;3.30;;
773;SDS011;370;48.810;9.150;2022-08-18T00:22:20;2.40;;;2.20;;
773;SDS011;370;48.810;9.150;2022-08-18T00:24:50;3.30;;;2.90;;
773;SDS011;370;48.810;9.150;2022-08-18T00:27:19;10.80;;;3.00;;
773;SDS011;370;48.810;9.150;2022-08-18T00:29:47;4.10;;;2.87;;
773;SDS011;370;48.810;9.150;2022-08-18T00:32:15;3.43;;;2.80;;
773;SDS011;370;48.810;9.150;2022-08-18T00:34:43;3.87;;;2.57;;
773;SDS011;370;48.810;9.150;2022-08-18T00:37:10;4.97;;;3.40;;
773;SDS011;370;48.810;9.150;2022-08-18T00:39:36;4.87;;;3.10;;
773;SDS011;370;48.810;9.150;2022-08-18T00:42:15;5.17;;;2.97;;
773;SDS011;370;48.810;9.150;2022-08-18T00:44:46;6.83;;;3.30;;
773;SDS011;370;48.810;9.150;2022-08-18T00:47:13;4.60;;;3.03;;
773;SDS011;370;48.810;9.150;2022-08-18T00:49:40;6.10;;;3.53;;
773;SDS011;370;48.810;9.150;2022-08-18T00:52:08;6.50;;;3.50;;
773;SDS011;370;48.810;9.150;2022-08-18T00:54:39;6.47;;;3.00;;
773;SDS011;370;48.810;9.150;2022-08-18T00:57:09;4.07;;;2.90;;
773;SDS011;370;48.810;9.150;2022-08-18T00:59:39;7.80;;;3.43;;
773;SDS011;370;48.810;9.150;2022-08-18T01:02:11;8.40;;;3.70;;
773;SDS011;370;48.810;9.150;2022-08-18T01:04:44;5.20;;;2.80;;
773;SDS011;370;48.810;9.150;2022-08-18T01:07:16;7.33;;;3.63;;
773;SDS011;370;48.810;9.150;2022-08-18T01:09:47;6.47;;;3.03;;
773;SDS011;370;48.810;9.150;2022-08-18T01:12:14;5.40;;;3.17;;
773;SDS011;370;48.810;9.150;2022-08-18T01:14:43;8.60;;;3.30;;
773;SDS011;370;48.810;9.150;2022-08-18T01:17:11;6.60;;;3.10;;
773;SDS011;370;48.810;9.150;2022-08-18T01:19:55;8.17;;;3.43;;
773;SDS011;370;48.810;9.150;2022-08-18T01:25:20;4.73;;;3.13;;
773;SDS011;370;48.810;9.150;2022-08-18T01:28:05;5.67;;;3.33;;
773;SDS011;370;48.810;9.150;2022-08-18T01:30:43;4.40;;;3.00;;
773;SDS011;370;48.810;9.150;2022-08-18T01:33:12;7.13;;;3.60;;
773;SDS011;370;48.810;9.150;2022-08-18T01:35:39;4.67;;;3.43;;
773;SDS011;370;48.810;9.150;2022-08-18T01:38:10;4.83;;;2.93;;
773;SDS011;370;48.810;9.150;2022-08-18T01:40:37;6.20;;;3.57;;
773;SDS011;370;48.810;9.150;2022-08-18T01:43:04;4.60;;;3.20;;
773;SDS011;370;48.810;9.150;2022-08-18T01:45:31;5.93;;;3.47;;
773;SDS011;370;48.810;9.150;2022-08-18T01:47:58;7.30;;;4.23;;
773;SDS011;370;48.810;9.150;2022-08-18T01:50:31;5.77;;;2.63;;
773;SDS011;370;48.810;9.150;2022-08-18T01:52:59;6.27;;;3.37;;
773;SDS011;370;48.810;9.150;2022-08-18T01:55:27;5.43;;;3.23;;
773;SDS011;370;48.810;9.150;2022-08-18T01:57:54;5.00;;;2.90;;
773;SDS011;370;48.810;9.150;2022-08-18T02:00:21;4.30;;;2.83;;
773;SDS011;370;48.810;9.150;2022-08-18T02:02:49;4.73;;;2.20;;
773;SDS011;370;48.810;9.150;2022-08-18T02:05:19;4.90;;;3.33;;
773;SDS011;370;48.810;9.150;2022-08-18T02:07:50;4.60;;;2.50;;
773;SDS011;370;48.810;9.150;2022-08-18T02:10:17;2.80;;;2.57;;
773;SDS011;370;48.810;9.150;2022-08-18T02:12:45;4.13;;;2.90;;
773;SDS011;370;48.810;9.150;2022-08-18T02:15:11;5.73;;;3.10;;
773;SDS011;370;48.810;9.150;2022-08-18T02:17:39;7.90;;;3.63;;
773;SDS011;370;48.810;9.150;2022-08-18T02:20:08;3.93;;;3.03;;
773;SDS011;370;48.810;9.150;2022-08-18T02:22:37;2.97;;;2.70;;
773;SDS011;370;48.810;9.150;2022-08-18T02:25:05;4.83;;;3.00;;
773;SDS011;370;48.810;9.150;2022-08-18T02:27:33;5.37;;;3.40;;
773;SDS011;370;48.810;9.150;2022-08-18T02:30:03;12.13;;;3.43;;
773;SDS011;370;48.810;9.150;2022-08-18T02:32:32;5.63;;;3.20;;
773;SDS011;370;48.810;9.150;2022-08-18T02:34:59;3.17;;;2.87;;
773;SDS011;370;48.810;9.150;2022-08-18T02:37:26;4.00;;;2.77;;
773;SDS011;370;48.810;9.150;2022-08-18T02:39:55;5.03;;;2.83;;
773;SDS011;370;48.810;9.150;2022-08-18T02:42:22;10.00;;;2.90;;
773;SDS011;370;48.810;9.150;2022-08-18T02:44:49;6.57;;;3.63;;
773;SDS011;370;48.810;9.150;2022-08-18T02:47:19;8.20;;;3.60;;
773;SDS011;370;48.810;9.150;2022-08-18T02:49:46;6.63;;;3.30;;
773;SDS011;370;48.810;9.150;2022-08-18T02:52:13;5.13;;;3.17;;
773;SDS011;370;48.810;9.150;2022-08-18T02:54:40;5.43;;;3.00;;
773;SDS011;370;48.810;9.150;2022-08-18T02:57:09;5.57;;;2.90;;
773;SDS011;370;48.810;9.150;2022-08-18T02:59:37;6.03;;;3.40;;
773;SDS011;370;48.810;9.150;2022-08-18T03:02:06;4.67;;;2.90;;
773;SDS011;370;48.810;9.150;2022-08-18T03:04:34;4.40;;;3.37;;
773;SDS011;370;48.810;9.150;2022-08-18T03:07:03;6.23;;;3.40;;
773;SDS011;370;48.810;9.150;2022-08-18T03:09:31;5.60;;;3.40;;
773;SDS011;370;48.810;9.150;2022-08-18T03:11:59;4.30;;;3.30;;
773;SDS011;370;48.810;9.150;2022-08-18T03:14:26;4.67;;;3.10;;
773;SDS011;370;48.810;9.150;2022-08-18T03:16:54;5.30;;;3.00;;
773;SDS011;370;48.810;9.150;2022-08-18T03:19:21;4.37;;;3.33;;
773;SDS011;370;48.810;9.150;2022-08-18T03:21:50;4.00;;;2.80;;
773;SDS011;370;48.810;9.150;2022-08-18T03:24:19;4.60;;;3.07;;
773;SDS011;370;48.810;9.150;2022-08-18T03:26:47;5.67;;;3.03;;
773;SDS011;370;48.810;9.150;2022-08-18T03:29:13;7.03;;;3.70;;
773;SDS011;370;48.810;9.150;2022-08-18T03:31:41;6.63;;;3.40;;
773;SDS011;370;48.810;9.150;2022-08-18T03:34:09;4.00;;;2.90;;
773;SDS011;370;48.810;9.150;2022-08-18T03:36:36;5.57;;;3.57;;
773;SDS011;370;48.810;9.150;2022-08-18T03:39:05;5.43;;;3.63;;
773;SDS011;370;48.810;9.150;2022-08-18T03:41:36;7.60;;;3.20;;
773;SDS011;370;48.810;9.150;2022-08-18T03:44:04;6.27;;;3.70;;
773;SDS011;370;48.810;9.150;2022-08-18T03:46:31;5.17;;;3.67;;
773;SDS011;370;48.810;9.150;2022-08-18T03:48:58;4.00;;;3.20;;
773;SDS011;370;48.810;9.150;2022-08-18T03:51:26;5.20;;;3.07;;
773;SDS011;370;48.810;9.150;2022-08-18T03:53:56;6.00;;;3.53;;
773;SDS011;370;48.810;9.150;2022-08-18T03:56:27;6.13;;;3.13;;
773;SDS011;370;48.810;9.150;2022-08-18T03:58:58;4.00;;;2.90;;
773;SDS011;370;48.810;9.150;2022-08-18T04:01:28;4.20;;;3.20;;
773;SDS011;370;48.810;9.150;2022-08-18T04:03:57;5.77;;;3.00;;
773;SDS011;370;48.810;9.150;2022-08-18T04:09:43;6.97;;;3.43;;
773;SDS011;370;48.810;9.150;2022-08-18T04:12:13;4.93;;;3.20;;
773;SDS011;370;48.810;9.150;2022-08-18T04:14:41;6.40;;;3.40;;
773;SDS011;370;48.810;9.150;2022-08-18T04:17:10;4.37;;;3.47;;
773;SDS011;370;48.810;9.150;2022-08-18T04:19:37;8.00;;;4.00;;
773;SDS011;370;48.810;9.150;2022-08-18T04:22:04;7.30;;;3.50;;
773;SDS011;370;48.810;9.150;2022-08-18T04:24:31;5.60;;;3.30;;
773;SDS011;370;48.810;9.150;2022-08-18T04:26:59;5.50;;;3.73;;
773;SDS011;370;48.810;9.150;2022-08-18T04:29:28;5.33;;;3.30;;
773;SDS011;370;48.810;9.150;2022-08-18T04:31:55;5.30;;;3.10;;
773;SDS011;370;48.810;9.150;2022-08-18T04:34:25;5.47;;;3.27;;
773;SDS011;370;48.810;9.150;2022-08-18T04:36:51;4.07;;;3.13;;
773;SDS011;370;48.810;9.150;2022-08-18T04:39:19;5.87;;;3.60;;
773;SDS011;370;48.810;9.150;2022-08-18T04:41:46;5.00;;;3.20;;
773;SDS011;370;48.810;9.150;2022-08-18T04:44:13;8.30;;;3.43;;
773;SDS011;370;48.810;9.150;2022-08-18T04:46:43;4.07;;;3.10;;
773;SDS011;370;48.810;9.150;2022-08-18T04:49:12;4.13;;;3.23;;
773;SDS011;370;48.810;9.150;2022-08-18T04:51:41;6.23;;;3.13;;
773;SDS011;370;48.810;9.150;2022-08-18T04:54:29;5.83;;;3.00;;
773;SDS011;370;48.810;9.150;2022-08-18T04:56:55;5.20;;;3.20;;
773;SDS011;370;48.810;9.150;2022-08-18T04:59:21;4.30;;;2.93;;
773;SDS011;370;48.810;9.150;2022-08-18T05:01:50;5.80;;;2.70;;
773;SDS011;370;48.810;9.150;2022-08-18T05:04:17;4.40;;;2.87;;
773;SDS011;370;48.810;9.150;2022-08-18T05:06:44;4.77;;;3.00;;
773;SDS011;370;48.810;9.150;2022-08-18T05:09:12;6.10;;;3.03;;
773;SDS011;370;48.810;9.150;2022-08-18T05:11:40;7.47;;;3.27;;
773;SDS011;370;48.810;9.150;2022-08-18T05:14:08;3.80;;;2.97;;
773;SDS011;370;48.810;9.150;2022-08-18T05:16:35;4.67;;;3.10;;
773;SDS011;370;48.810;9.150;2022-08-18T05:19:06;6.00;;;3.90;;
773;SDS011;370;48.810;9.150;2022-08-18T05:21:36;3.67;;;3.10;;
773;SDS011;370;48.810;9.150;2022-08-18T05:24:05;4.90;;;3.10;;
773;SDS011;370;48.810;9.150;2022-08-18T05:26:32;8.20;;;4.37;;
773;SDS011;370;48.810;9.150;2022-08-18T05:29:00;6.93;;;4.00;;
773;SDS011;370;48.810;9.150;2022-08-18T05:31:27;4.50;;;3.00;;
773;SDS011;370;48.810;9.150;2022-08-18T05:33:55;5.70;;;3.10;;
773;SDS011;370;48.810;9.150;2022-08-18T05:36:28;4.93;;;3.70;;
773;SDS011;370;48.810;9.150;2022-08-18T05:39:12;9.47;;;3.50;;
773;SDS011;370;48.810;9.150;2022-08-18T05:41:47;8.93;;;3.80;;
773;SDS011;370;48.810;9.150;2022-08-18T05:44:18;13.47;;;3.73;;
773;SDS011;370;48.810;9.150;2022-08-18T05:50:11;7.33;;;4.27;;
773;SDS011;370;48.810;9.150;2022-08-18T05:52:45;5.07;;;3.97;;
773;SDS011;370;48.810;9.150;2022-08-18T05:55:20;5.57;;;3.60;;
773;SDS011;370;48.810;9.150;2022-08-18T05:58:10;5.90;;;3.97;;
773;SDS011;370;48.810;9.150;2022-08-18T06:00:39;6.47;;;4.10;;
773;SDS011;370;48.810;9.150;2022-08-18T06:03:11;8.00;;;3.90;;
773;SDS011;370;48.810;9.150;2022-08-18T06:05:43;6.27;;;3.87;;
773;SDS011;370;48.810;9.150;2022-08-18T06:08:17;6.23;;;4.07;;
773;SDS011;370;48.810;9.150;2022-08-18T06:10:47;8.23;;;4.67;;
773;SDS011;370;48.810;9.150;2022-08-18T06:13:15;7.10;;;4.43;;
773;SDS011;370;48.810;9.150;2022-08-18T06:15:45;9.30;;;4.00;;
773;SDS011;370;48.810;9.150;2022-08-18T06:18:22;7.73;;;4.43;;
773;SDS011;370;48.810;9.150;2022-08-18T06:21:06;5.83;;;3.87;;
773;SDS011;370;48.810;9.150;2022-08-18T06:23:45;8.80;;;4.53;;
773;SDS011;370;48.810;9.150;2022-08-18T06:26:22;6.30;;;4.40;;
773;SDS011;370;48.810;9.150;2022-08-18T06:29:00;10.20;;;4.03;;
773;SDS011;370;48.810;9.150;2022-08-18T06:31:40;5.60;;;3.90;;
773;SDS011;370;48.810;9.150;2022-08-18T06:34:15;12.37;;;3.80;;
773;SDS011;370;48.810;9.150;2022-08-18T06:36:51;5.63;;;3.80;;
773;SDS011;370;48.810;9.150;2022-08-18T06:39:23;5.90;;;4.03;;
773;SDS011;370;48.810;9.150;2022-08-18T06:41:54;6.90;;;4.03;;
773;SDS011;370;48.810;9.150;2022-08-18T06:44:22;5.37;;;4.30;;
773;SDS011;370;48.810;9.150;2022-08-18T06:46:57;7.97;;;4.50;;
773;SDS011;370;48.810;9.150;2022-08-18T06:49:35;6.20;;;4.60;;
773;SDS011;370;48.810;9.150;2022-08-18T06:52:16;5.77;;;3.90;;
773;SDS011;370;48.810;9.150;2022-08-18T06:54:48;10.70;;;4.10;;
773;SDS011;370;48.810;9.150;2022-08-18T06:57:21;6.70;;;4.20;;
773;SDS011;370;48.810;9.150;2022-08-18T06:59:56;6.13;;;3.83;;
773;SDS011;370;48.810;9.150;2022-08-18T07:02:28;8.50;;;4.97;;
773;SDS011;370;48.810;9.150;2022-08-18T07:05:04;8.60;;;4.40;;
773;SDS011;370;48.810;9.150;2022-08-18T07:07:33;5.73;;;4.57;;
773;SDS011;370;48.810;9.150;2022-08-18T07:10:03;19.43;;;5.47;;
773;SDS011;370;48.810;9.150;2022-08-18T07:12:31;5.40;;;3.90;;
773;SDS011;370;48.810;9.150;2022-08-18T07:14:59;5.20;;;3.37;;
773;SDS011;370;48.810;9.150;2022-08-18T07:17:30;6.57;;;3.70;;
773;SDS011;370;48.810;9.150;2022-08-18T07:20:00;12.33;;;4.60;;
773;SDS011;370;48.810;9.150;2022-08-18T07:22:30;6.33;;;3.77;;
773;SDS011;370;48.810;9.150;2022-08-18T07:24:58;6.30;;;3.80;;
773;SDS011;370;48.810;9.150;2022-08-18T07:27:44;7.10;;;5.10;;
773;SDS011;370;48.810;9.150;2022-08-18T07:30:20;4.73;;;3.60;;
773;SDS011;370;48.810;9.150;2022-08-18T07:32:55;5.50;;;3.63;;
773;SDS011;370;48.810;9.150;2022-08-18T07:35:27;5.90;;;3.80;;
773;SDS011;370;48.810;9.150;2022-08-18T07:38:00;5.40;;;3.90;;
773;SDS011;370;48.810;9.150;2022-08-18T07:40:34;5.80;;;3.43;;
773;SDS011;370;48.810;9.150;2022-08-18T07:43:08;7.00;;;4.13;;
773;SDS011;370;48.810;9.150;2022-08-18T07:45:42;7.23;;;4.07;;
773;SDS011;370;48.810;9.150;2022-08-18T07:48:11;4.17;;;2.90;;
773;SDS011;370;48.810;9.150;2022-08-18T07:50:42;6.60;;;4.23;;
773;SDS011;370;48.810;9.150;2022-08-18T07:53:17;6.13;;;4.27;;
773;SDS011;370;48.810;9.150;2022-08-18T07:55:54;10.13;;;4.27;;
773;SDS011;370;48.810;9.150;2022-08-18T07:58:31;9.33;;;3.70;;
773;SDS011;370;48.810;9.150;2022-08-18T08:01:03;7.00;;;3.70;;
773;SDS011;370;48.810;9.150;2022-08-18T08:03:40;5.93;;;3.73;;
773;SDS011;370;48.810;9.150;2022-08-18T08:06:16;11.50;;;4.60;;
773;SDS011;370;48.810;9.150;2022-08-18T08:08:48;6.30;;;3.97;;
773;SDS011;370;48.810;9.150;2022-08-18T08:11:34;5.77;;;3.67;;
773;SDS011;370;48.810;9.150;2022-08-18T08:14:12;8.00;;;3.97;;
773;SDS011;370;48.810;9.150;2022-08-18T08:16:56;7.03;;;3.90;;
773;SDS011;370;48.810;9.150;2022-08-18T08:19:43;7.40;;;4.37;;
773;SDS011;370;48.810;9.150;2022-08-18T08:22:22;14.07;;;4.57;;
773;SDS011;370;48.810;9.150;2022-08-18T08:24:58;5.20;;;4.00;;
773;SDS011;370;48.810;9.150;2022-08-18T08:27:34;5.60;;;3.80;;
773;SDS011;370;48.810;9.150;2022-08-18T08:30:13;5.73;;;3.50;;
773;SDS011;370;48.810;9.150;2022-08-18T08:32:43;5.43;;;3.60;;
773;SDS011;370;48.810;9.150;2022-08-18T08:35:22;5.77;;;3.20;;
773;SDS011;370;48.810;9.150;2022-08-18T08:37:57;5.50;;;4.20;;
773;SDS011;370;48.810;9.150;2022-08-18T08:40:34;7.40;;;4.10;;
773;SDS011;370;48.810;9.150;2022-08-18T08:43:14;6.67;;;4.50;;
773;SDS011;370;48.810;9.150;2022-08-18T08:45:47;4.43;;;3.73;;
773;SDS011;370;48.810;9.150;2022-08-18T08:48:19;7.00;;;4.13;;
773;SDS011;370;48.810;9.150;2022-08-18T08:50:49;5.67;;;3.77;;
773;SDS011;370;48.810;9.150;2022-08-18T08:53:22;9.00;;;3.97;;
773;SDS011;370;48.810;9.150;2022-08-18T08:55:54;4.60;;;3.83;;
773;SDS011;370;48.810;9.150;2022-08-18T08:58:23;5.27;;;3.73;;
773;SDS011;370;48.810;9.150;2022-08-18T09:00:54;6.50;;;3.97;;
773;SDS011;370;48.810;9.150;2022-08-18T09:03:25;8.13;;;3.73;;
773;SDS011;370;48.810;9.150;2022-08-18T09:06:06;5.07;;;3.90;;
773;SDS011;370;48.810;9.150;2022-08-18T09:08:50;10.93;;;4.73;;
773;SDS011;370;48.810;9.150;2022-08-18T09:11:37;6.00;;;4.70;;
773;SDS011;370;48.810;9.150;2022-08-18T09:14:30;11.23;;;4.83;;
773;SDS011;370;48.810;9.150;2022-08-18T09:20:31;11.13;;;4.83;;
773;SDS011;370;48.810;9.150;2022-08-18T09:23:15;10.37;;;5.80;;
773;SDS011;370;48.810;9.150;2022-08-18T09:25:46;16.97;;;4.80;;
773;SDS011;370;48.810;9.150;2022-08-18T09:28:17;9.20;;;4.60;;
773;SDS011;370;48.810;9.150;2022-08-18T09:30:47;8.13;;;4.70;;
773;SDS011;370;48.810;9.150;2022-08-18T09:33:20;8.47;;;4.93;;
773;SDS011;370;48.810;9.150;2022-08-18T09:36:04;8.30;;;4.60;;
773;SDS011;370;48.810;9.150;2022-08-18T09:38:45;8.53;;;5.13;;
773;SDS011;370;48.810;9.150;2022-08-18T09:50:36;9.47;;;5.20;;
773;SDS011;370;48.810;9.150;2022-08-18T09:53:32;7.20;;;5.43;;
773;SDS011;370;48.810;9.150;2022-08-18T09:56:02;6.47;;;4.73;;
773;SDS011;370;48.810;9.150;2022-08-18T10:01:36;8.93;;;5.90;;
773;SDS011;370;48.810;9.150;2022-08-18T10:06:52;6.23;;;5.07;;
773;SDS011;370;48.810;9.150;2022-08-18T10:09:32;10.93;;;6.57;;
773;SDS011;370;48.810;9.150;2022-08-18T10:12:07;11.43;;;6.47;;
773;SDS011;370;48.810;9.150;2022-08-18T10:15:18;12.20;;;7.67;;
773;SDS011;370;48.810;9.150;2022-08-18T10:18:13;20.60;;;9.50;;
773;SDS011;370;48.810;9.150;2022-08-18T10:21:08;10.40;;;6.90;;
773;SDS011;370;48.810;9.150;2022-08-18T10:23:48;8.93;;;6.20;;
773;SDS011;370;48.810;9.150;2022-08-18T10:29:49;10.53;;;6.47;;
773;SDS011;370;48.810;9.150;2022-08-18T10:38:24;9.80;;;6.10;;
773;SDS011;370;48.810;9.150;2022-08-18T10:40:57;9.30;;;6.60;;
773;SDS011;370;48.810;9.150;2022-08-18T10:43:30;9.63;;;6.03;;
773;SDS011;370;48.810;9.150;2022-08-18T10:46:03;12.20;;;6.93;;
773;SDS011;370;48.810;9.150;2022-08-18T10:48:32;14.40;;;6.23;;
773;SDS011;370;48.810;9.150;2022-08-18T10:51:01;9.03;;;6.80;;
773;SDS011;370;48.810;9.150;2022-08-18T10:53:43;10.43;;;6.50;;
773;SDS011;370;48.810;9.150;2022-08-18T10:56:18;9.40;;;6.80;;
773;SDS011;370;48.810;9.150;2022-08-18T10:59:00;6.90;;;5.43;;
773;SDS011;370;48.810;9.150;2022-08-18T11:01:40;10.87;;;7.03;;
773;SDS011;370;48.810;9.150;2022-08-18T11:04:23;7.40;;;5.53;;
773;SDS011;370;48.810;9.150;2022-08-18T11:06:57;8.23;;;5.80;;
773;SDS011;370;48.810;9.150;2022-08-18T11:09:29;8.67;;;6.30;;
773;SDS011;370;48.810;9.150;2022-08-18T11:11:58;9.13;;;6.30;;
773;SDS011;370;48.810;9.150;2022-08-18T11:14:33;7.70;;;6.30;;
773;SDS011;370;48.810;9.150;2022-08-18T11:17:11;8.23;;;6.40;;
773;SDS011;370;48.810;9.150;2022-08-18T11:19:45;7.23;;;5.53;;
773;SDS011;370;48.810;9.150;2022-08-18T11:22:21;9.80;;;6.47;;
773;SDS011;370;48.810;9.150;2022-08-18T11:24:49;8.83;;;6.53;;
773;SDS011;370;48.810;9.150;2022-08-18T11:27:17;8.30;;;6.67;;
773;SDS011;370;48.810;9.150;2022-08-18T11:29:46;10.20;;;7.20;;
773;SDS011;370;48.810;9.150;2022-08-18T11:32:17;9.00;;;6.10;;
773;SDS011;370;48.810;9.150;2022-08-18T11:34:49;7.20;;;6.40;;
773;SDS011;370;48.810;9.150;2022-08-18T11:37:20;12.30;;;7.43;;
773;SDS011;370;48.810;9.150;2022-08-18T11:39:51;11.30;;;6.80;;
773;SDS011;370;48.810;9.150;2022-08-18T11:42:28;8.77;;;6.63;;
773;SDS011;370;48.810;9.150;2022-08-18T11:45:06;12.77;;;6.60;;
773;SDS011;370;48.810;9.150;2022-08-18T11:50:28;9.87;;;7.33;;
773;SDS011;370;48.810;9.150;2022-08-18T11:53:09;9.60;;;6.70;;
773;SDS011;370;48.810;9.150;2022-08-18T11:55:43;8.80;;;6.60;;
773;SDS011;370;48.810;9.150;2022-08-18T11:58:10;11.73;;;6.57;;
773;SDS011;370;48.810;9.150;2022-08-18T12:00:58;9.30;;;5.50;;
773;SDS011;370;48.810;9.150;2022-08-18T12:03:27;11.13;;;5.80;;
773;SDS011;370;48.810;9.150;2022-08-18T12:05:57;10.93;;;6.40;;
773;SDS011;370;48.810;9.150;2022-08-18T12:08:35;9.73;;;6.50;;
773;SDS011;370;48.810;9.150;2022-08-18T12:11:13;10.77;;;6.57;;
773;SDS011;370;48.810;9.150;2022-08-18T12:13:44;7.80;;;5.73;;
773;SDS011;370;48.810;9.150;2022-08-18T12:16:15;12.57;;;7.47;;
773;SDS011;370;48.810;9.150;2022-08-18T12:18:56;14.20;;;6.63;;
773;SDS011;370;48.810;9.150;2022-08-18T12:21:23;8.40;;;6.40;;
773;SDS011;370;48.810;9.150;2022-08-18T12:23:50;8.20;;;5.80;;
773;SDS011;370;48.810;9.150;2022-08-18T12:26:17;9.73;;;6.80;;
773;SDS011;370;48.810;9.150;2022-08-18T12:28:44;10.80;;;6.43;;
773;SDS011;370;48.810;9.150;2022-08-18T12:31:11;8.97;;;6.30;;
773;SDS011;370;48.810;9.150;2022-08-18T12:33:39;8.67;;;6.43;;
773;SDS011;370;48.810;9.150;2022-08-18T12:36:06;10.17;;;7.50;;
773;SDS011;370;48.810;9.150;2022-08-18T12:38:34;9.83;;;9.33;;
773;SDS011;370;48.810;9.150;2022-08-18T12:41:01;8.20;;;6.40;;
773;SDS011;370;48.810;9.150;2022-08-18T12:43:29;9.57;;;6.30;;
773;SDS011;370;48.810;9.150;2022-08-18T12:45:56;10.53;;;6.77;;
773;SDS011;370;48.810;9.150;2022-08-18T12:48:24;16.53;;;5.83;;
773;SDS011;370;48.810;9.150;2022-08-18T12:50:53;7.37;;;5.90;;
773;SDS011;370;48.810;9.150;2022-08-18T12:53:20;6.83;;;5.87;;
773;SDS011;370;48.810;9.150;2022-08-18T12:55:47;7.23;;;5.10;;
773;SDS011;370;48.810;9.150;2022-08-18T12:58:14;9.70;;;5.67;;
773;SDS011;370;48.810;9.150;2022-08-18T13:00:42;7.67;;;6.17;;
773;SDS011;370;48.810;9.150;2022-08-18T13:03:08;8.07;;;6.20;;
773;SDS011;370;48.810;9.150;2022-08-18T13:05:35;7.90;;;5.60;;
773;SDS011;370;48.810;9.150;2022-08-18T13:08:04;6.83;;;5.80;;
773;SDS011;370;48.810;9.150;2022-08-18T13:10:34;8.50;;;7.20;;
773;SDS011;370;48.810;9.150;2022-08-18T13:13:01;6.83;;;6.30;;
773;SDS011;370;48.810;9.150;2022-08-18T13:15:28;10.57;;;7.23;;
773;SDS011;370;48.810;9.150;2022-08-18T13:17:56;8.17;;;5.93;;
773;SDS011;370;48.810;9.150;2022-08-18T13:20:23;9.47;;;6.23;;
773;SDS011;370;48.810;9.150;2022-08-18T13:22:50;10.00;;;7.67;;
773;SDS011;370;48.810;9.150;2022-08-18T13:25:19;11.80;;;6.63;;
773;SDS011;370;48.810;9.150;2022-08-18T13:27:46;9.37;;;6.93;;
773;SDS011;370;48.810;9.150;2022-08-18T13:30:16;9.80;;;7.50;;
773;SDS011;370;48.810;9.150;2022-08-18T13:32:43;12.50;;;8.40;;
773;SDS011;370;48.810;9.150;2022-08-18T13:35:10;8.57;;;6.40;;
773;SDS011;370;48.810;9.150;2022-08-18T13:37:37;9.00;;;6.93;;
773;SDS011;370;48.810;9.150;2022-08-18T13:40:05;7.97;;;6.13;;
773;SDS011;370;48.810;9.150;2022-08-18T13:42:40;9.17;;;6.60;;
773;SDS011;370;48.810;9.150;2022-08-18T13:45:10;8.43;;;5.97;;
773;SDS011;370;48.810;9.150;2022-08-18T13:47:37;7.57;;;6.00;;
773;SDS011;370;48.810;9.150;2022-08-18T13:50:04;7.73;;;5.90;;
773;SDS011;370;48.810;9.150;2022-08-18T13:52:31;15.40;;;6.57;;
773;SDS011;370;48.810;9.150;2022-08-18T13:54:58;7.17;;;5.80;;
773;SDS011;370;48.810;9.150;2022-08-18T13:57:27;8.13;;;6.40;;
773;SDS011;370;48.810;9.150;2022-08-18T13:59:56;12.20;;;6.30;;
773;SDS011;370;48.810;9.150;2022-08-18T14:02:23;8.67;;;5.53;;
773;SDS011;370;48.810;9.150;2022-08-18T14:04:50;8.47;;;5.77;;
773;SDS011;370;48.810;9.150;2022-08-18T14:07:19;6.97;;;5.80;;
773;SDS011;370;48.810;9.150;2022-08-18T14:09:46;9.23;;;5.27;;
773;SDS011;370;48.810;9.150;2022-08-18T14:12:15;8.60;;;6.00;;
773;SDS011;370;48.810;9.150;2022-08-18T14:14:44;6.40;;;5.53;;
773;SDS011;370;48.810;9.150;2022-08-18T14:17:12;9.40;;;7.03;;
773;SDS011;370;48.810;9.150;2022-08-18T14:19:39;7.70;;;5.50;;
773;SDS011;370;48.810;9.150;2022-08-18T14:22:23;9.03;;;6.00;;
773;SDS011;370;48.810;9.150;2022-08-18T14:25:08;7.70;;;5.27;;
773;SDS011;370;48.810;9.150;2022-08-18T14:27:52;6.83;;;5.47;;
773;SDS011;370;48.810;9.150;2022-08-18T14:30:19;7.20;;;5.40;;
773;SDS011;370;48.810;9.150;2022-08-18T14:32:47;9.67;;;5.93;;
773;SDS011;370;48.810;9.150;2022-08-18T14:35:14;7.03;;;5.80;;
773;SDS011;370;48.810;9.150;2022-08-18T14:37:42;7.13;;;5.40;;
773;SDS011;370;48.810;9.150;2022-08-18T14:40:10;7.40;;;5.07;;
773;SDS011;370;48.810;9.150;2022-08-18T14:42:37;6.30;;;5.13;;
773;SDS011;370;48.810;9.150;2022-08-18T14:45:05;7.63;;;5.07;;
773;SDS011;370;48.810;9.150;2022-08-18T14:47:33;9.83;;;5.57;;
773;SDS011;370;48.810;9.150;2022-08-18T14:50:01;20.80;;;5.57;;
773;SDS011;370;48.810;9.150;2022-08-18T14:52:28;8.30;;;5.30;;
773;SDS011;370;48.810;9.150;2022-08-18T14:54:54;12.13;;;6.67;;
773;SDS011;370;48.810;9.150;2022-08-18T14:57:21;6.97;;;5.70;;
773;SDS011;370;48.810;9.150;2022-08-18T14:59:48;10.10;;;5.30;;
773;SDS011;370;48.810;9.150;2022-08-18T15:02:14;5.43;;;4.80;;
773;SDS011;370;48.810;9.150;2022-08-18T15:04:41;8.17;;;5.40;;
773;SDS011;370;48.810;9.150;2022-08-18T15:07:10;11.70;;;5.30;;
773;SDS011;370;48.810;9.150;2022-08-18T15:09:37;7.57;;;4.67;;
773;SDS011;370;48.810;9.150;2022-08-18T15:12:04;5.77;;;4.33;;
773;SDS011;370;48.810;9.150;2022-08-18T15:14:32;7.60;;;5.40;;
773;SDS011;370;48.810;9.150;2022-08-18T15:17:00;9.17;;;5.30;;
773;SDS011;370;48.810;9.150;2022-08-18T15:19:27;7.40;;;6.00;;
773;SDS011;370;48.810;9.150;2022-08-18T15:21:54;6.57;;;5.70;;
773;SDS011;370;48.810;9.150;2022-08-18T15:24:40;8.47;;;4.97;;
773;SDS011;370;48.810;9.150;2022-08-18T15:27:31;7.00;;;5.30;;
773;SDS011;370;48.810;9.150;2022-08-18T15:30:03;6.60;;;4.97;;
773;SDS011;370;48.810;9.150;2022-08-18T15:32:32;8.77;;;5.77;;
773;SDS011;370;48.810;9.150;2022-08-18T15:34:59;7.50;;;5.23;;
773;SDS011;370;48.810;9.150;2022-08-18T15:37:26;8.27;;;6.07;;
773;SDS011;370;48.810;9.150;2022-08-18T15:39:59;7.57;;;5.33;;
773;SDS011;370;48.810;9.150;2022-08-18T15:42:29;7.13;;;5.70;;
773;SDS011;370;48.810;9.150;2022-08-18T15:44:58;14.00;;;6.60;;
773;SDS011;370;48.810;9.150;2022-08-18T15:47:28;9.40;;;4.70;;
773;SDS011;370;48.810;9.150;2022-08-18T15:49:57;5.60;;;4.97;;
773;SDS011;370;48.810;9.150;2022-08-18T15:52:24;6.63;;;5.00;;
773;SDS011;370;48.810;9.150;2022-08-18T15:54:51;6.60;;;4.80;;
773;SDS011;370;48.810;9.150;2022-08-18T15:57:19;8.30;;;5.07;;
773;SDS011;370;48.810;9.150;2022-08-18T15:59:46;7.03;;;5.30;;
773;SDS011;370;48.810;9.150;2022-08-18T16:02:12;11.23;;;5.87;;
773;SDS011;370;48.810;9.150;2022-08-18T16:04:40;8.70;;;4.93;;
773;SDS011;370;48.810;9.150;2022-08-18T16:07:07;8.07;;;5.20;;
773;SDS011;370;48.810;9.150;2022-08-18T16:09:33;16.20;;;7.60;;
773;SDS011;370;48.810;9.150;2022-08-18T16:12:00;8.53;;;6.43;;
773;SDS011;370;48.810;9.150;2022-08-18T16:14:28;6.43;;;4.70;;
773;SDS011;370;48.810;9.150;2022-08-18T16:16:55;5.13;;;3.77;;
773;SDS011;370;48.810;9.150;2022-08-18T16:19:23;8.83;;;5.03;;
773;SDS011;370;48.810;9.150;2022-08-18T16:21:49;6.53;;;4.50;;
773;SDS011;370;48.810;9.150;2022-08-18T16:24:16;5.63;;;3.93;;
773;SDS011;370;48.810;9.150;2022-08-18T16:26:43;5.30;;;4.47;;
773;SDS011;370;48.810;9.150;2022-08-18T16:29:09;7.50;;;4.20;;
773;SDS011;370;48.810;9.150;2022-08-18T16:31:37;8.43;;;4.10;;
773;SDS011;370;48.810;9.150;2022-08-18T16:34:05;13.73;;;4.50;;
773;SDS011;370;48.810;9.150;2022-08-18T16:36:31;5.60;;;4.43;;
773;SDS011;370;48.810;9.150;2022-08-18T16:38:58;8.20;;;4.00;;
773;SDS011;370;48.810;9.150;2022-08-18T16:41:25;4.60;;;3.63;;
773;SDS011;370;48.810;9.150;2022-08-18T16:43:52;6.53;;;4.20;;
773;SDS011;370;48.810;9.150;2022-08-18T16:46:21;5.97;;;4.67;;